Terminal Aerodrome Forecast
Issued by NWS

Home | Current Version | Previous Version | Text Only | Print | Product List | Glossary On
Versions: 1 2 3 4 5 6 7 8 9 10 11 12 13 14 15 16 17 18 19 20
654
FTUS41 KBGM 011126
TAFRME
TAF
KRME 011126Z 0112/0212 11007KT P6SM SCT015 OVC030
      TEMPO 0112/0116 OVC015
     FM011700 11008KT P6SM OVC025
     FM012100 10008KT P6SM -SHRA OVC025
     FM012300 10008KT P6SM -SHRA OVC035
     FM020700 11007KT P6SM BKN015=

USA.gov is the U.S. government's official web portal to all federal, state and local government web resources and services.